createdAt,value
2022-10-18T00:00:48.526Z,35.20
2022-10-18T00:01:50.984Z,38.80
2022-10-18T00:02:53.170Z,37.67
2022-10-18T00:03:55.362Z,38.70
2022-10-18T00:04:57.507Z,31.40
2022-10-18T00:06:00.137Z,35.00
2022-10-18T00:07:02.439Z,34.72
2022-10-18T00:08:04.745Z,34.38
2022-10-18T00:09:07.039Z,35.60
2022-10-18T00:10:10.109Z,38.50
2022-10-18T00:11:12.414Z,33.38
2022-10-18T00:12:14.725Z,29.50
2022-10-18T00:13:17.442Z,35.80
2022-10-18T00:14:19.783Z,37.80
2022-10-18T00:15:21.938Z,37.38
2022-10-18T00:16:24.105Z,37.20
2022-10-18T00:17:29.447Z,31.15
2022-10-18T00:18:32.389Z,35.67
2022-10-18T00:19:34.669Z,36.58
2022-10-18T00:20:36.881Z,34.28
2022-10-18T00:21:39.169Z,36.92
2022-10-18T00:22:42.233Z,33.72
2022-10-18T00:23:45.836Z,34.65
2022-10-18T00:24:48.259Z,37.55
2022-10-18T00:26:02.183Z,37.58
2022-10-18T00:27:04.564Z,37.10
2022-10-18T00:28:06.780Z,33.10
2022-10-18T00:29:15.004Z,37.55
2022-10-18T00:30:17.179Z,34.22
2022-10-18T00:31:27.825Z,36.25
2022-10-18T00:32:30.203Z,39.40
2022-10-18T00:33:32.702Z,40.22
2022-10-18T00:34:35.041Z,36.75
2022-10-18T00:35:37.173Z,36.90
2022-10-18T00:36:39.688Z,37.10
2022-10-18T00:37:41.830Z,30.90
2022-10-18T00:38:44.999Z,33.03
2022-10-18T00:39:47.438Z,38.65
2022-10-18T00:40:49.599Z,37.25
2022-10-18T00:41:52.361Z,34.83
2022-10-18T00:42:54.499Z,36.65
2022-10-18T00:44:06.982Z,38.50
2022-10-18T00:45:21.700Z,37.38
2022-10-18T00:46:25.477Z,40.22
2022-10-18T00:47:40.156Z,36.88
2022-10-18T00:48:42.434Z,32.70
2022-10-18T00:49:52.792Z,47.72
2022-10-18T00:50:55.214Z,37.15
2022-10-18T00:52:05.083Z,38.92
2022-10-18T00:53:12.969Z,38.88
2022-10-18T00:54:17.079Z,33.72
2022-10-18T00:55:20.704Z,35.80
2022-10-18T00:56:23.133Z,33.38
2022-10-18T00:57:25.960Z,36.25
2022-10-18T00:58:29.129Z,36.75
2022-10-18T00:59:31.393Z,36.50
2022-10-18T01:00:35.040Z,31.75
2022-10-18T01:01:37.270Z,34.85
2022-10-18T01:02:42.014Z,35.42
2022-10-18T01:03:44.886Z,37.08
2022-10-18T01:04:47.967Z,35.55
2022-10-18T01:05:50.371Z,33.45
2022-10-18T01:07:21.383Z,33.30
2022-10-18T01:08:28.783Z,32.28
2022-10-18T01:09:36.659Z,34.13
2022-10-18T01:10:45.967Z,35.70
2022-10-18T01:12:23.449Z,33.42
2022-10-18T01:14:11.789Z,37.75
2022-10-18T01:15:29.701Z,33.83
2022-10-18T01:16:42.532Z,37.35
2022-10-18T01:18:21.010Z,34.45
2022-10-18T01:19:47.973Z,37.47
2022-10-18T01:21:13.184Z,35.65
2022-10-18T01:23:00.576Z,31.42
2022-10-18T01:24:19.184Z,34.20
2022-10-18T01:25:30.089Z,37.92
2022-10-18T01:26:38.568Z,37.78
2022-10-18T01:27:46.928Z,34.65
2022-10-18T01:29:24.680Z,35.03
2022-10-18T01:30:38.129Z,42.40
2022-10-18T01:31:46.901Z,40.05
2022-10-18T01:32:52.996Z,35.95
2022-10-18T01:34:00.002Z,41.45
2022-10-18T01:35:08.842Z,32.45
2022-10-18T01:36:28.687Z,36.53
2022-10-18T01:37:33.086Z,37.97
2022-10-18T01:38:38.253Z,36.17
2022-10-18T01:39:43.493Z,36.63
2022-10-18T01:40:50.379Z,36.53
2022-10-18T01:41:54.606Z,37.47
2022-10-18T01:42:56.985Z,39.10
2022-10-18T01:44:02.088Z,37.15
2022-10-18T01:45:04.867Z,34.15
2022-10-18T01:46:09.330Z,33.78
2022-10-18T01:47:13.819Z,38.78
2022-10-18T01:48:16.669Z,35.05
2022-10-18T01:49:19.175Z,38.47
2022-10-18T01:50:35.006Z,41.03
2022-10-18T01:51:37.432Z,37.83
2022-10-18T01:52:52.138Z,40.72
2022-10-18T01:53:54.739Z,35.15
2022-10-18T01:54:59.473Z,38.70
2022-10-18T01:56:10.521Z,33.72
2022-10-18T01:57:22.944Z,37.35
2022-10-18T01:58:37.283Z,36.15
2022-10-18T02:00:04.025Z,37.28
2022-10-18T02:01:31.345Z,33.70
2022-10-18T02:02:51.186Z,35.38
2022-10-18T02:03:58.086Z,36.90
2022-10-18T02:05:35.169Z,40.33
2022-10-18T02:06:45.104Z,38.47
2022-10-18T02:08:23.259Z,32.33
2022-10-18T02:09:36.228Z,35.20
2022-10-18T02:10:46.570Z,34.47
2022-10-18T02:11:54.030Z,33.00
2022-10-18T02:12:57.566Z,33.45
2022-10-18T02:14:12.982Z,35.20
2022-10-18T02:15:19.960Z,32.53
2022-10-18T02:16:35.776Z,33.50
2022-10-18T02:17:40.292Z,33.28
2022-10-18T02:18:49.367Z,33.10
2022-10-18T02:19:54.842Z,33.58
2022-10-18T02:20:59.031Z,35.38
2022-10-18T02:22:02.140Z,36.03
2022-10-18T02:23:07.439Z,35.95
2022-10-18T02:24:12.918Z,32.47
2022-10-18T02:25:21.272Z,29.83
2022-10-18T02:26:23.958Z,32.80
2022-10-18T02:27:26.233Z,35.33
2022-10-18T02:28:28.654Z,33.88
2022-10-18T02:29:32.059Z,34.97
2022-10-18T02:30:52.729Z,37.20
2022-10-18T02:32:09.434Z,34.00
2022-10-18T02:33:22.146Z,35.80
2022-10-18T02:34:35.248Z,30.88
2022-10-18T02:35:45.026Z,31.83
2022-10-18T02:36:58.263Z,32.07
2022-10-18T02:38:01.758Z,33.38
2022-10-18T02:39:11.605Z,36.38
2022-10-18T02:40:15.250Z,30.55
2022-10-18T02:41:27.979Z,32.45
2022-10-18T02:42:35.875Z,32.53
2022-10-18T02:43:38.211Z,33.85
2022-10-18T02:44:40.670Z,32.75
2022-10-18T02:45:43.027Z,35.60
2022-10-18T02:46:46.716Z,32.85
2022-10-18T02:47:49.076Z,38.92
2022-10-18T02:48:51.358Z,31.00
2022-10-18T02:49:53.683Z,35.97
2022-10-18T02:50:56.002Z,35.40
2022-10-18T02:51:58.447Z,33.90
2022-10-18T02:53:00.775Z,31.33
2022-10-18T02:54:03.607Z,32.08
2022-10-18T02:55:09.417Z,33.35
2022-10-18T02:56:11.687Z,31.40
2022-10-18T02:57:14.032Z,29.90
2022-10-18T02:58:16.297Z,32.70
2022-10-18T02:59:18.648Z,33.20
2022-10-18T03:00:20.989Z,36.38
2022-10-18T03:01:24.428Z,28.85
2022-10-18T03:02:27.069Z,29.92
2022-10-18T03:03:29.261Z,29.33
2022-10-18T03:04:31.615Z,41.13
2022-10-18T03:05:33.816Z,30.52
2022-10-18T03:06:36.293Z,32.15
2022-10-18T03:07:38.617Z,33.28
2022-10-18T03:08:40.838Z,32.35
2022-10-18T03:09:43.152Z,31.20
2022-10-18T03:10:46.315Z,33.33
2022-10-18T03:11:48.660Z,31.35
2022-10-18T03:12:50.834Z,40.85
2022-10-18T03:13:53.165Z,30.98
2022-10-18T03:14:55.320Z,32.10
2022-10-18T03:15:57.639Z,33.17
2022-10-18T03:16:59.942Z,29.30
2022-10-18T03:18:02.104Z,31.55
2022-10-18T03:19:04.439Z,34.92
2022-10-18T03:20:07.162Z,28.88
2022-10-18T03:21:10.433Z,32.75
2022-10-18T03:22:12.724Z,36.03
2022-10-18T03:23:14.867Z,31.48
2022-10-18T03:24:17.236Z,30.83
2022-10-18T03:25:19.513Z,32.08
2022-10-18T03:26:21.817Z,32.05
2022-10-18T03:27:24.332Z,33.30
2022-10-18T03:28:26.783Z,29.48
2022-10-18T03:29:29.009Z,33.25
2022-10-18T03:30:31.270Z,35.58
2022-10-18T03:31:33.939Z,36.00
2022-10-18T03:32:36.436Z,29.77
2022-10-18T03:33:38.856Z,34.63
2022-10-18T03:34:41.030Z,31.85
2022-10-18T03:35:43.400Z,31.15
2022-10-18T03:36:45.590Z,34.10
2022-10-18T03:37:48.207Z,33.90
2022-10-18T03:38:50.437Z,31.38
2022-10-18T03:39:52.634Z,30.90
2022-10-18T03:40:54.901Z,31.20
2022-10-18T03:41:57.143Z,30.83
2022-10-18T03:42:59.631Z,33.97
2022-10-18T03:44:01.868Z,28.00
2022-10-18T03:45:04.915Z,28.50
2022-10-18T03:46:07.281Z,32.20
2022-10-18T03:47:09.466Z,31.70
2022-10-18T03:48:11.909Z,30.02
2022-10-18T03:49:14.262Z,31.02
2022-10-18T03:50:16.509Z,34.35
2022-10-18T03:51:18.706Z,29.33
2022-10-18T03:52:21.031Z,29.00
2022-10-18T03:53:23.225Z,32.03
2022-10-18T03:54:25.530Z,31.25
2022-10-18T03:55:27.881Z,32.10
2022-10-18T03:56:30.073Z,32.33
2022-10-18T03:57:32.410Z,31.63
2022-10-18T03:59:41.677Z,30.40
2022-10-18T04:00:43.998Z,29.33
2022-10-18T04:01:46.176Z,27.42
2022-10-18T04:02:52.017Z,31.05
2022-10-18T04:03:57.200Z,30.50
2022-10-18T04:04:59.401Z,27.98
2022-10-18T04:06:03.462Z,29.27
2022-10-18T04:07:05.617Z,30.00
2022-10-18T04:08:08.199Z,31.27
2022-10-18T04:09:10.506Z,29.10
2022-10-18T04:10:12.925Z,30.50
2022-10-18T04:11:15.307Z,28.77
2022-10-18T04:12:17.599Z,34.47
2022-10-18T04:13:19.933Z,27.75
2022-10-18T04:14:22.191Z,32.28
2022-10-18T04:15:24.450Z,29.45
2022-10-18T04:16:26.914Z,39.70
2022-10-18T04:17:29.392Z,31.00
2022-10-18T04:18:32.232Z,28.58
2022-10-18T04:19:34.458Z,31.42
2022-10-18T04:20:36.817Z,28.13
2022-10-18T04:21:39.148Z,32.28
2022-10-18T04:22:41.464Z,32.22
2022-10-18T04:23:44.001Z,30.88
2022-10-18T04:24:46.157Z,31.70
2022-10-18T04:25:48.328Z,28.35
2022-10-18T04:26:51.454Z,33.33
2022-10-18T04:27:53.781Z,32.03
2022-10-18T04:28:55.979Z,27.33
2022-10-18T04:29:58.323Z,30.30
2022-10-18T04:31:01.120Z,27.33
2022-10-18T04:32:03.545Z,30.63
2022-10-18T04:33:05.963Z,30.63
2022-10-18T04:34:09.008Z,30.85
2022-10-18T04:35:11.702Z,26.45
2022-10-18T04:36:13.871Z,33.72
2022-10-18T04:37:16.079Z,30.63
2022-10-18T04:38:19.923Z,33.25
2022-10-18T04:39:22.104Z,35.78
2022-10-18T04:40:24.435Z,29.80
2022-10-18T04:41:26.582Z,29.77
2022-10-18T04:42:28.736Z,31.30
2022-10-18T04:43:31.334Z,28.13
2022-10-18T04:44:34.423Z,27.13
2022-10-18T04:45:36.673Z,32.85
2022-10-18T04:46:38.820Z,32.15
2022-10-18T04:47:41.140Z,29.95
2022-10-18T04:48:43.556Z,28.83
2022-10-18T04:49:45.711Z,30.10
2022-10-18T04:50:49.783Z,30.20
2022-10-18T04:51:51.965Z,64.95
2022-10-18T04:52:54.270Z,30.45
2022-10-18T04:53:56.755Z,29.05
2022-10-18T04:54:58.952Z,32.63
2022-10-18T04:56:01.259Z,27.40
2022-10-18T04:57:03.924Z,27.15
2022-10-18T04:58:06.082Z,33.25
2022-10-18T04:59:08.649Z,29.08
2022-10-18T05:00:11.322Z,38.13
2022-10-18T05:01:13.618Z,27.63
2022-10-18T05:02:15.808Z,29.40
2022-10-18T05:03:18.268Z,31.38
2022-10-18T05:04:20.587Z,28.02
2022-10-18T05:05:23.198Z,27.35
2022-10-18T05:06:27.214Z,27.02
2022-10-18T05:07:29.391Z,30.75
2022-10-18T05:08:33.748Z,28.50
2022-10-18T05:09:35.971Z,30.65
2022-10-18T05:10:38.428Z,28.85
2022-10-18T05:11:40.634Z,26.95
2022-10-18T05:12:43.822Z,29.30
2022-10-18T05:13:48.622Z,27.58
2022-10-18T05:14:53.315Z,24.90
2022-10-18T05:15:55.918Z,27.48
2022-10-18T05:16:58.354Z,28.02
2022-10-18T05:18:00.541Z,30.23
2022-10-18T05:19:05.251Z,28.92
2022-10-18T05:20:07.775Z,31.70
2022-10-18T05:21:10.707Z,32.42
2022-10-18T05:22:12.877Z,31.15
2022-10-18T05:23:15.087Z,28.40
2022-10-18T05:24:17.555Z,32.90
2022-10-18T05:25:19.728Z,32.80
2022-10-18T05:26:22.029Z,31.20
2022-10-18T05:27:24.189Z,31.98
2022-10-18T05:28:42.153Z,30.92
2022-10-18T05:29:44.622Z,28.15
2022-10-18T05:30:46.825Z,30.17
2022-10-18T05:31:49.621Z,24.10
2022-10-18T05:32:51.794Z,29.35
2022-10-18T05:33:54.101Z,28.55
2022-10-18T05:34:56.626Z,30.50
2022-10-18T05:35:59.530Z,31.88
2022-10-18T05:37:01.704Z,32.83
2022-10-18T05:38:06.180Z,35.05
2022-10-18T05:39:08.365Z,35.75
2022-10-18T05:40:11.259Z,37.30
2022-10-18T05:41:13.880Z,34.88
2022-10-18T05:42:16.160Z,35.85
2022-10-18T05:43:18.403Z,34.95
2022-10-18T05:44:21.662Z,32.85
2022-10-18T05:45:23.836Z,35.97
2022-10-18T05:46:26.110Z,34.15
2022-10-18T05:47:28.333Z,35.90
2022-10-18T05:48:31.165Z,41.60
2022-10-18T05:49:33.504Z,42.60
2022-10-18T05:50:38.141Z,36.25
2022-10-18T05:51:42.764Z,33.45
2022-10-18T05:52:44.994Z,32.22
2022-10-18T05:53:47.587Z,32.40
2022-10-18T05:54:49.917Z,33.28
2022-10-18T05:55:52.246Z,28.52
2022-10-18T05:56:54.457Z,31.13
2022-10-18T05:57:56.906Z,41.60
2022-10-18T05:58:59.060Z,31.15
2022-10-18T06:00:01.528Z,38.97
2022-10-18T06:01:13.912Z,28.98
2022-10-18T06:02:16.343Z,36.38
2022-10-18T06:03:18.730Z,35.67
2022-10-18T06:04:21.250Z,37.50
2022-10-18T06:05:23.583Z,30.13
2022-10-18T06:06:25.783Z,27.65
2022-10-18T06:07:27.951Z,31.85
2022-10-18T06:08:30.335Z,37.92
2022-10-18T06:09:32.515Z,31.95
2022-10-18T06:10:34.838Z,36.63
2022-10-18T06:11:37.349Z,27.33
2022-10-18T06:12:39.627Z,29.92
2022-10-18T06:13:43.607Z,29.08
2022-10-18T06:14:45.795Z,33.92
2022-10-18T06:15:48.136Z,30.58
2022-10-18T06:16:50.577Z,28.77
2022-10-18T06:17:52.747Z,33.65
2022-10-18T06:18:57.318Z,32.50
2022-10-18T06:19:59.527Z,32.38
2022-10-18T06:21:02.179Z,30.30
2022-10-18T06:22:04.857Z,35.17
2022-10-18T06:23:07.019Z,34.92
2022-10-18T06:24:09.233Z,28.83
2022-10-18T06:25:11.715Z,31.58
2022-10-18T06:26:13.867Z,29.88
2022-10-18T06:27:16.272Z,28.70
2022-10-18T06:28:18.463Z,29.15
2022-10-18T06:29:20.603Z,33.92
2022-10-18T06:30:23.088Z,28.20
2022-10-18T06:31:25.357Z,35.35
2022-10-18T06:32:27.561Z,31.60
2022-10-18T06:33:31.406Z,34.05
2022-10-18T06:34:34.087Z,32.20
2022-10-18T06:35:36.568Z,32.42
2022-10-18T06:36:38.745Z,26.95
2022-10-18T06:38:48.745Z,38.97
2022-10-18T06:39:50.890Z,28.67
2022-10-18T06:40:54.294Z,30.42
2022-10-18T06:41:56.471Z,32.63
2022-10-18T06:43:19.587Z,28.23
2022-10-18T06:44:23.198Z,31.10
2022-10-18T06:45:25.628Z,26.98
2022-10-18T06:46:27.834Z,35.50
2022-10-18T06:47:30.046Z,32.97
2022-10-18T06:48:32.935Z,28.63
2022-10-18T06:49:35.224Z,28.25
2022-10-18T06:50:37.897Z,41.35
2022-10-18T06:51:40.777Z,29.02
2022-10-18T06:52:43.519Z,31.92
2022-10-18T06:53:59.060Z,34.60
2022-10-18T06:55:09.201Z,32.15
2022-10-18T06:56:13.513Z,28.52
2022-10-18T06:57:15.668Z,27.48
2022-10-18T06:58:18.082Z,34.92
2022-10-18T06:59:20.207Z,30.52
2022-10-18T07:00:22.547Z,30.63
2022-10-18T07:01:24.750Z,30.33
2022-10-18T07:02:26.982Z,31.38
2022-10-18T07:03:29.451Z,34.85
2022-10-18T07:04:31.654Z,28.95
2022-10-18T07:06:41.156Z,31.50
2022-10-18T07:07:43.389Z,35.53
2022-10-18T07:08:47.322Z,32.67
2022-10-18T07:09:49.476Z,29.58
2022-10-18T07:10:53.369Z,36.88
2022-10-18T07:11:55.492Z,36.30
2022-10-18T07:13:13.538Z,31.73
2022-10-18T07:14:19.931Z,28.08
2022-10-18T07:15:24.045Z,31.88
2022-10-18T07:16:26.623Z,32.78
2022-10-18T07:17:29.050Z,30.83
2022-10-18T07:18:33.141Z,33.63
2022-10-18T07:19:35.496Z,32.35
2022-10-18T07:20:37.819Z,39.72
2022-10-18T07:21:40.100Z,31.40
2022-10-18T07:22:42.272Z,32.25
2022-10-18T07:23:48.481Z,27.85
2022-10-18T07:24:50.991Z,29.30
2022-10-18T07:25:53.155Z,32.30
2022-10-18T07:26:55.509Z,34.38
2022-10-18T07:27:57.734Z,27.55
2022-10-18T07:29:08.752Z,32.65
2022-10-18T07:30:11.559Z,26.02
2022-10-18T07:31:14.211Z,31.92
2022-10-18T07:32:16.554Z,32.17
2022-10-18T07:33:20.695Z,32.72
2022-10-18T07:34:22.887Z,31.40
2022-10-18T07:35:25.053Z,31.60
2022-10-18T07:36:27.284Z,29.92
2022-10-18T07:37:30.533Z,36.13
2022-10-18T07:38:32.953Z,33.97
2022-10-18T07:39:35.100Z,30.80
2022-10-18T07:40:37.235Z,36.38
2022-10-18T07:41:39.844Z,34.22
2022-10-18T07:42:42.618Z,33.35
2022-10-18T07:43:48.836Z,31.25
2022-10-18T07:44:51.154Z,27.10
2022-10-18T07:45:54.841Z,33.17
2022-10-18T07:46:57.158Z,29.02
2022-10-18T07:47:59.543Z,27.65
2022-10-18T07:49:01.756Z,31.13
2022-10-18T07:50:03.947Z,32.00
2022-10-18T07:51:06.725Z,36.03
2022-10-18T07:52:09.165Z,30.90
2022-10-18T07:53:11.304Z,27.60
2022-10-18T07:54:13.528Z,31.73
2022-10-18T07:55:15.831Z,34.78
2022-10-18T07:56:21.275Z,30.30
2022-10-18T07:57:24.002Z,30.77
2022-10-18T07:58:26.538Z,34.10
2022-10-18T07:59:28.681Z,34.08
2022-10-18T08:00:31.081Z,33.60
2022-10-18T08:01:34.367Z,35.33
2022-10-18T08:02:36.815Z,37.30
2022-10-18T08:03:39.110Z,32.38
2022-10-18T08:04:41.616Z,33.08
2022-10-18T08:05:43.933Z,32.08
2022-10-18T08:06:46.252Z,30.15
2022-10-18T08:07:48.571Z,38.17
2022-10-18T08:08:50.784Z,35.75
2022-10-18T08:09:52.994Z,40.50
2022-10-18T08:10:55.828Z,35.35
2022-10-18T08:11:58.021Z,34.40
2022-10-18T08:13:00.434Z,39.97
2022-10-18T08:14:02.634Z,37.28
2022-10-18T08:15:05.233Z,30.70
2022-10-18T08:16:10.207Z,32.75
2022-10-18T08:17:12.507Z,31.63
2022-10-18T08:18:14.655Z,28.70
2022-10-18T08:19:16.967Z,35.33
2022-10-18T08:20:30.404Z,30.67
2022-10-18T08:21:33.501Z,31.67
2022-10-18T08:22:35.746Z,31.98
2022-10-18T08:23:38.656Z,31.38
2022-10-18T08:24:40.807Z,29.90
2022-10-18T08:25:42.974Z,34.35
2022-10-18T08:26:45.108Z,37.05
2022-10-18T08:27:47.550Z,33.25
2022-10-18T08:28:58.345Z,36.00
2022-10-18T08:30:12.048Z,35.75
2022-10-18T08:31:19.775Z,32.85
2022-10-18T08:32:21.962Z,34.25
2022-10-18T08:33:24.188Z,31.40
2022-10-18T08:34:26.437Z,30.58
2022-10-18T08:35:28.601Z,32.78
2022-10-18T08:36:30.762Z,27.77
2022-10-18T08:37:33.441Z,30.02
2022-10-18T08:38:37.846Z,36.35
2022-10-18T08:39:39.991Z,34.80
2022-10-18T08:40:44.499Z,33.35
2022-10-18T08:42:04.039Z,37.25
2022-10-18T08:43:21.461Z,30.90
2022-10-18T08:44:30.237Z,27.90
2022-10-18T08:45:42.358Z,31.42
2022-10-18T08:46:51.137Z,28.65
2022-10-18T08:47:57.330Z,36.58
2022-10-18T08:49:01.848Z,34.88
2022-10-18T08:50:14.791Z,35.83
2022-10-18T08:51:42.455Z,33.03
2022-10-18T08:53:17.783Z,33.85
2022-10-18T08:54:33.663Z,37.53
2022-10-18T08:55:42.213Z,46.35
2022-10-18T08:56:54.340Z,32.58
2022-10-18T08:57:58.240Z,34.28
2022-10-18T08:59:04.180Z,31.75
2022-10-18T09:00:26.082Z,35.53
2022-10-18T09:01:28.364Z,33.85
2022-10-18T09:02:52.879Z,34.60
2022-10-18T09:04:01.394Z,30.25
2022-10-18T09:05:24.932Z,34.63
2022-10-18T09:06:44.658Z,33.55
2022-10-18T09:08:11.508Z,33.10
2022-10-18T09:09:36.928Z,36.63
2022-10-18T09:10:53.537Z,29.23
2022-10-18T09:12:21.033Z,32.97
2022-10-18T09:13:42.165Z,32.45
2022-10-18T09:15:09.481Z,33.40
2022-10-18T09:16:16.850Z,29.13
2022-10-18T09:17:35.350Z,36.42
2022-10-18T09:19:02.605Z,39.05
2022-10-18T09:20:25.268Z,39.25
2022-10-18T09:21:38.295Z,34.17
2022-10-18T09:23:12.506Z,35.17
2022-10-18T09:24:26.497Z,34.42
2022-10-18T09:25:47.097Z,31.80
2022-10-18T09:26:54.798Z,33.92
2022-10-18T09:28:14.227Z,36.65
2022-10-18T09:29:46.618Z,38.75
2022-10-18T09:30:59.802Z,33.88
2022-10-18T09:32:44.385Z,34.13
2022-10-18T09:34:05.386Z,34.78
2022-10-18T09:37:43.268Z,36.10
2022-10-18T09:38:49.255Z,39.35
2022-10-18T09:40:00.010Z,41.67
2022-10-18T09:41:13.461Z,38.80
2022-10-18T09:42:27.014Z,38.67
2022-10-18T09:43:58.847Z,40.65
2022-10-18T09:45:08.098Z,42.47
2022-10-18T09:46:11.339Z,38.65
2022-10-18T09:47:21.504Z,39.13
2022-10-18T09:48:29.577Z,44.60
2022-10-18T09:49:42.187Z,41.00
2022-10-18T09:50:50.937Z,39.05
2022-10-18T09:51:54.310Z,37.03
2022-10-18T09:53:20.992Z,36.58
2022-10-18T09:54:42.045Z,38.10
2022-10-18T09:57:15.294Z,38.13
2022-10-18T09:58:20.559Z,33.50
2022-10-18T09:59:40.545Z,31.67
2022-10-18T10:00:48.399Z,32.35
2022-10-18T10:01:50.616Z,37.80
2022-10-18T10:02:52.976Z,29.70
2022-10-18T10:03:55.272Z,35.05
2022-10-18T10:04:57.681Z,30.15
2022-10-18T10:06:11.839Z,33.08
2022-10-18T10:07:29.891Z,30.80
2022-10-18T10:10:01.684Z,29.15
2022-10-18T10:11:04.048Z,27.60
2022-10-18T10:12:24.780Z,26.02
2022-10-18T10:13:27.975Z,23.90
2022-10-18T10:14:30.783Z,23.13
2022-10-18T10:15:37.173Z,22.80
2022-10-18T10:16:51.506Z,21.83
2022-10-18T10:19:03.624Z,23.30
2022-10-18T10:20:20.248Z,21.23
2022-10-18T10:21:23.389Z,17.92
2022-10-18T10:22:36.000Z,20.88
2022-10-18T10:23:54.789Z,15.82
2022-10-18T10:24:57.023Z,16.02
2022-10-18T10:26:04.981Z,13.82
2022-10-18T10:27:17.106Z,21.20
2022-10-18T10:28:26.528Z,12.00
2022-10-18T10:29:46.930Z,12.38
2022-10-18T10:30:49.332Z,12.10
2022-10-18T10:32:04.262Z,12.73
2022-10-18T10:33:27.003Z,15.20
2022-10-18T10:34:29.875Z,13.18
2022-10-18T10:35:54.278Z,11.35
2022-10-18T10:36:56.733Z,10.02
2022-10-18T10:37:59.191Z,9.60
2022-10-18T10:39:12.110Z,9.63
2022-10-18T10:40:20.276Z,8.18
2022-10-18T10:41:24.154Z,7.07
2022-10-18T10:42:26.505Z,7.22
2022-10-18T10:43:40.015Z,7.35
2022-10-18T10:44:55.061Z,7.93
2022-10-18T10:45:59.662Z,8.50
2022-10-18T10:47:02.243Z,6.43
2022-10-18T10:48:16.761Z,5.72
2022-10-18T10:49:40.266Z,6.22
2022-10-18T10:50:55.288Z,11.63
2022-10-18T10:52:09.246Z,6.30
2022-10-18T10:53:52.631Z,6.63
2022-10-18T10:55:05.683Z,6.20
2022-10-18T10:56:28.796Z,5.78
2022-10-18T10:57:31.868Z,6.32
2022-10-18T10:58:37.466Z,8.38
2022-10-18T10:59:56.229Z,6.57
2022-10-18T11:00:58.497Z,6.75
2022-10-18T11:02:19.090Z,5.97
2022-10-18T11:03:29.095Z,8.27
2022-10-18T11:04:32.415Z,6.10
2022-10-18T11:05:43.853Z,8.23
2022-10-18T11:06:52.000Z,6.82
2022-10-18T11:08:02.022Z,5.03
2022-10-18T11:09:15.686Z,5.43
2022-10-18T11:10:22.895Z,6.53
2022-10-18T11:11:33.290Z,14.73
2022-10-18T11:12:47.340Z,7.15
2022-10-18T11:14:07.224Z,6.20
2022-10-18T11:15:26.245Z,5.90
2022-10-18T11:16:42.637Z,6.30
2022-10-18T11:18:08.964Z,7.88
2022-10-18T11:19:41.064Z,7.70
2022-10-18T11:21:08.029Z,8.23
2022-10-18T11:22:17.193Z,5.47
2022-10-18T11:23:19.673Z,5.10
2022-10-18T11:24:23.285Z,5.85
2022-10-18T11:25:53.317Z,5.35
2022-10-18T11:27:16.767Z,5.47
2022-10-18T11:28:28.716Z,7.35
2022-10-18T11:30:08.082Z,6.40
2022-10-18T11:31:35.812Z,8.23
2022-10-18T11:33:12.078Z,9.20
2022-10-18T11:34:32.378Z,5.80
2022-10-18T11:35:49.830Z,8.15
2022-10-18T11:37:02.297Z,8.68
2022-10-18T11:38:42.375Z,7.18
2022-10-18T11:40:10.505Z,6.93
2022-10-18T11:41:30.891Z,7.15
2022-10-18T11:42:35.665Z,7.30
2022-10-18T11:44:01.599Z,8.30
2022-10-18T11:46:53.781Z,8.82
2022-10-18T11:48:04.710Z,9.17
2022-10-18T11:49:30.155Z,8.23
2022-10-18T11:50:50.981Z,8.82
2022-10-18T11:52:07.433Z,7.13
2022-10-18T11:53:22.883Z,5.68
2022-10-18T11:54:46.097Z,6.38
2022-10-18T11:55:56.810Z,5.70
2022-10-18T11:57:26.516Z,6.50
2022-10-18T11:58:31.491Z,8.05
2022-10-18T12:00:11.780Z,7.15
2022-10-18T12:01:28.499Z,5.97
2022-10-18T12:02:49.196Z,4.60
2022-10-18T12:04:49.037Z,5.82
2022-10-18T12:06:14.891Z,4.30
2022-10-18T12:07:26.791Z,4.70
2022-10-18T12:08:43.862Z,5.20
2022-10-18T12:11:06.026Z,7.03
2022-10-18T12:12:23.050Z,5.78
2022-10-18T12:13:44.080Z,4.55
2022-10-18T12:15:57.774Z,7.43
2022-10-18T12:17:39.816Z,14.07
2022-10-18T12:18:30.688Z,24.73
2022-10-18T12:19:35.510Z,9.65
2022-10-18T12:20:47.017Z,5.25
2022-10-18T12:21:49.735Z,8.50
2022-10-18T12:23:01.891Z,8.88
2022-10-18T12:24:16.046Z,6.65
2022-10-18T12:25:19.102Z,5.30
2022-10-18T12:26:22.677Z,9.52
2022-10-18T12:27:53.273Z,3.83
2022-10-18T12:29:08.506Z,5.40
2022-10-18T12:30:58.639Z,3.30
2022-10-18T12:32:11.263Z,6.25
2022-10-18T12:33:33.723Z,3.28
2022-10-18T12:34:53.882Z,2.97
2022-10-18T12:36:20.074Z,5.68
2022-10-18T12:37:31.553Z,7.88
2022-10-18T12:38:37.852Z,5.85
2022-10-18T12:40:11.472Z,8.80
2022-10-18T12:41:22.931Z,3.72
2022-10-18T12:42:31.178Z,2.83
2022-10-18T12:43:37.991Z,61.67
2022-10-18T12:44:40.195Z,4.00
2022-10-18T12:45:52.796Z,3.47
2022-10-18T12:46:58.161Z,3.28
2022-10-18T12:48:07.538Z,5.28
2022-10-18T12:49:12.246Z,6.35
2022-10-18T12:50:23.299Z,10.57
2022-10-18T12:51:25.535Z,4.72
2022-10-18T12:52:31.938Z,4.45
2022-10-18T12:53:35.150Z,5.50
2022-10-18T12:54:39.614Z,3.33
2022-10-18T12:55:45.291Z,13.57
2022-10-18T12:56:47.720Z,4.63
2022-10-18T12:57:52.940Z,4.93
2022-10-18T12:59:14.056Z,9.80
2022-10-18T13:00:31.203Z,8.27
2022-10-18T13:01:56.582Z,7.82
2022-10-18T13:03:14.279Z,4.25
2022-10-18T13:04:28.666Z,2.45
2022-10-18T13:05:54.868Z,3.15
2022-10-18T13:07:00.534Z,3.28
2022-10-18T13:08:31.692Z,1.90
2022-10-18T13:09:39.517Z,1.98
2022-10-18T13:10:41.939Z,3.05
2022-10-18T13:11:44.270Z,3.20
2022-10-18T13:13:38.644Z,2.40
2022-10-18T13:15:12.512Z,2.55
2022-10-18T13:16:30.136Z,3.85
2022-10-18T13:17:58.531Z,3.63
2022-10-18T13:19:15.579Z,3.28
2022-10-18T13:20:36.751Z,2.75
2022-10-18T13:21:45.145Z,3.05
2022-10-18T13:23:08.108Z,2.80
2022-10-18T13:24:15.140Z,2.72
2022-10-18T13:25:17.242Z,2.50
2022-10-18T13:26:28.519Z,3.17
2022-10-18T13:27:38.360Z,4.60
2022-10-18T13:29:13.573Z,4.85
2022-10-18T13:30:41.507Z,2.63
2022-10-18T13:33:29.394Z,4.28
2022-10-18T13:34:39.139Z,3.03
2022-10-18T13:35:54.864Z,3.38
2022-10-18T13:37:24.134Z,7.53
2022-10-18T13:38:29.321Z,2.92
2022-10-18T13:39:33.116Z,2.88
2022-10-18T13:40:35.483Z,4.65
2022-10-18T13:41:46.960Z,8.38
2022-10-18T13:42:49.273Z,2.95
2022-10-18T13:44:10.468Z,3.40
2022-10-18T13:45:30.908Z,6.07
2022-10-18T13:46:33.189Z,6.35
2022-10-18T13:47:38.003Z,3.72
2022-10-18T13:48:52.245Z,4.85
2022-10-18T13:51:53.984Z,3.20
2022-10-18T13:53:09.327Z,4.13
2022-10-18T13:54:38.816Z,6.75
2022-10-18T13:56:06.012Z,4.15
2022-10-18T13:57:32.540Z,3.15
2022-10-18T13:59:06.097Z,3.10
2022-10-18T14:00:30.198Z,3.30
2022-10-18T14:01:37.663Z,3.25
2022-10-18T14:03:08.414Z,4.30
2022-10-18T14:04:52.378Z,3.38
2022-10-18T14:06:12.117Z,3.10
2022-10-18T14:07:18.298Z,3.35
2022-10-18T14:08:36.479Z,6.25
2022-10-18T14:09:55.016Z,3.05
2022-10-18T14:11:22.332Z,3.42
2022-10-18T14:12:39.955Z,3.05
2022-10-18T14:13:54.812Z,3.28
2022-10-18T14:15:08.082Z,3.20
2022-10-18T14:16:30.918Z,3.10
2022-10-18T14:17:56.761Z,3.42
2022-10-18T14:19:11.784Z,3.88
2022-10-18T14:20:20.026Z,3.75
2022-10-18T14:21:31.384Z,3.33
2022-10-18T14:22:45.039Z,3.00
2022-10-18T14:23:47.521Z,3.22
2022-10-18T14:24:54.229Z,3.75
2022-10-18T14:26:07.058Z,2.97
2022-10-18T14:27:16.685Z,3.45
2022-10-18T14:28:27.303Z,3.65
2022-10-18T14:29:39.527Z,5.15
2022-10-18T14:30:53.761Z,3.75
2022-10-18T14:31:56.389Z,4.05
2022-10-18T14:32:59.688Z,8.25
2022-10-18T14:34:03.361Z,3.97
2022-10-18T14:35:33.644Z,3.67
2022-10-18T14:36:47.675Z,3.17
2022-10-18T14:37:52.541Z,4.10
2022-10-18T14:38:54.772Z,3.80
2022-10-18T14:39:57.027Z,3.00
2022-10-18T14:41:07.466Z,4.10
2022-10-18T14:42:20.704Z,3.50
2022-10-18T14:43:22.952Z,4.05
2022-10-18T14:44:30.183Z,3.90
2022-10-18T14:45:32.533Z,3.20
2022-10-18T14:46:41.411Z,6.43
2022-10-18T14:47:45.493Z,4.75
2022-10-18T14:49:02.010Z,3.08
2022-10-18T14:50:20.044Z,3.10
2022-10-18T14:51:22.645Z,4.20
2022-10-18T14:52:35.313Z,3.17
2022-10-18T14:53:40.028Z,4.05
2022-10-18T14:54:42.682Z,5.03
2022-10-18T14:55:55.608Z,4.63
2022-10-18T14:56:58.856Z,5.43
2022-10-18T14:58:02.412Z,4.45
2022-10-18T14:59:21.631Z,5.20
2022-10-18T15:00:30.421Z,4.85
2022-10-18T15:01:32.962Z,5.97
2022-10-18T15:02:38.934Z,5.82
2022-10-18T15:03:41.406Z,5.57
2022-10-18T15:04:45.473Z,4.78
2022-10-18T15:06:01.715Z,4.32
2022-10-18T15:07:06.665Z,4.63